Time;durP1;ratioP1;P1;durP2;ratioP2;P2;SDS_P1;SDS_P2;PMS_P1;PMS_P2;Temp;Humidity;BMP_temperature;BMP_pressure;BME280_temperature;BME280_humidity;BME280_pressure;Samples;Min_cycle;Max_cycle;Signal;HPM_P1;HPM_P2
2022/09/17 00:03:21;;;;;;;;;;;;;;;;;;10414187;28;19925;-63
2022/09/17 00:08:23;;;;;;;;;;;;;;;;;;10414948;28;19980;-63
2022/09/17 00:13:26;;;;;;;;;;;;;;;;;;10415713;28;19929;-63
2022/09/17 00:18:28;;;;;;;;;;;;;;;;;;10414245;28;20380;-63
2022/09/17 00:23:30;;;;;;;;;;;;;;;;;;10413599;28;20360;-63
2022/09/17 00:28:32;;;;;;;;;;;;;;;;;;10415224;28;19925;-63
2022/09/17 00:33:34;;;;;;;;;;;;;;;;;;10433169;22;19990;-58
2022/09/17 00:38:36;;;;;;;;;;;;;;;;;;10421810;28;19929;-58
2022/09/17 00:43:38;;;;;;;;;;;;;;;;;;10420850;28;19979;-58
2022/09/17 00:48:40;;;;;;;;;;;;;;;;;;10422322;28;19925;-59
2022/09/17 00:53:42;;;;;;;;;;;;;;;;;;10422222;28;19925;-58
2022/09/17 00:58:44;;;;;;;;;;;;;;;;;;10420762;28;20358;-58
2022/09/17 01:03:46;;;;;;;;;;;;;;;;;;10420713;28;19925;-59
2022/09/17 01:08:48;;;;;;;;;;;;;;;;;;10420927;28;19925;-58
2022/09/17 01:13:50;;;;;;;;;;;;;;;;;;10420511;28;19979;-58
2022/09/17 01:18:52;;;;;;;;;;;;;;;;;;10421284;28;19925;-58
2022/09/17 01:23:54;;;;;;;;;;;;;;;;;;10419957;28;19929;-58
2022/09/17 01:28:56;;;;;;;;;;;;;;;;;;10420256;28;19987;-57
2022/09/17 01:34:00;;;;;;;;;;;;;;;;;;10418981;28;19925;-57
2022/09/17 01:39:02;;;;;;;;;;;;;;;;;;10400619;28;20442;-58
2022/09/17 01:44:05;;;;;;;;;;;;;;;;;;10418653;28;19933;-57
2022/09/17 01:49:07;;;;;;;;;;;;;;;;;;10420084;28;19925;-57
2022/09/17 01:54:09;;;;;;;;;;;;;;;;;;10418304;28;19929;-58
2022/09/17 01:59:11;;;;;;;;;;;;;;;;;;10418260;28;20265;-58
2022/09/17 02:04:13;;;;;;;;;;;;;;;;;;10419314;28;19925;-58
2022/09/17 02:09:15;;;;;;;;;;;;;;;;;;10418657;28;19925;-58
2022/09/17 02:14:17;;;;;;;;;;;;;;;;;;10418131;28;19925;-58
2022/09/17 02:19:19;;;;;;;;;;;;;;;;;;10418163;28;19952;-58
2022/09/17 02:24:21;;;;;;;;;;;;;;;;;;10417525;28;20379;-58
2022/09/17 02:29:24;;;;;;;;;;;;;;;;;;10418265;28;19971;-58
2022/09/17 02:34:26;;;;;;;;;;;;;;;;;;10416797;28;19925;-58
2022/09/17 02:39:28;;;;;;;;;;;;;;;;;;10416508;28;19937;-58
2022/09/17 02:44:30;;;;;;;;;;;;;;;;;;10417858;28;19925;-58
2022/09/17 02:49:32;;;;;;;;;;;;;;;;;;10416346;28;20292;-58
2022/09/17 02:54:34;;;;;;;;;;;;;;;;;;10398756;28;19929;-58
2022/09/17 02:59:36;;;;;;;;;;;;;;;;;;10415473;28;19925;-58
2022/09/17 03:04:38;;;;;;;;;;;;;;;;;;10417074;28;19978;-58
2022/09/17 03:09:42;;;;;;;;;;;;;;;;;;10416379;28;20393;-58
2022/09/17 03:14:44;;;;;;;;;;;;;;;;;;10415683;28;19936;-58
2022/09/17 03:19:46;;;;;;;;;;;;;;;;;;10414895;28;19925;-59
2022/09/17 03:24:48;;;;;;;;;;;;;;;;;;10416494;28;19929;-57
2022/09/17 03:29:50;;;;;;;;;;;;;;;;;;10415577;28;19987;-58
2022/09/17 03:34:53;;;;;;;;;;;;;;;;;;10415942;28;19972;-57
2022/09/17 03:39:55;;;;;;;;;;;;;;;;;;10415270;28;19972;-57
2022/09/17 03:44:57;;;;;;;;;;;;;;;;;;10416037;28;19925;-57
2022/09/17 03:49:59;;;;;;;;;;;;;;;;;;10414636;28;19925;-57
2022/09/17 03:55:01;;;;;;;;;;;;;;;;;;10415941;28;19924;-58
2022/09/17 04:00:04;;;;;;;;;;;;;;;;;;10414228;28;19925;-58
2022/09/17 04:05:06;;;;;;;;;;;;;;;;;;10415628;28;19929;-57
2022/09/17 04:10:08;;;;;;;;;;;;;;;;;;10421181;28;20414;-57
2022/09/17 04:15:10;;;;;;;;;;;;;;;;;;10422319;28;19925;-58
2022/09/17 04:20:12;;;;;;;;;;;;;;;;;;10421237;28;19971;-57
2022/09/17 04:25:14;;;;;;;;;;;;;;;;;;10421864;28;20093;-58
2022/09/17 04:30:16;;;;;;;;;;;;;;;;;;10422960;28;19956;-57
2022/09/17 04:35:18;;;;;;;;;;;;;;;;;;10423144;28;19925;-57
2022/09/17 04:40:20;;;;;;;;;;;;;;;;;;10421245;28;19932;-58
2022/09/17 04:45:22;;;;;;;;;;;;;;;;;;10420846;28;20024;-58
2022/09/17 04:50:24;;;;;;;;;;;;;;;;;;10422358;28;19929;-57
2022/09/17 04:55:26;;;;;;;;;;;;;;;;;;10422114;28;19925;-57
2022/09/17 05:00:28;;;;;;;;;;;;;;;;;;10419549;28;19929;-57
2022/09/17 05:05:30;;;;;;;;;;;;;;;;;;10404132;28;19924;-57
2022/09/17 05:10:32;;;;;;;;;;;;;;;;;;10420764;28;19952;-57
2022/09/17 05:15:34;;;;;;;;;;;;;;;;;;10419801;28;20343;-57
2022/09/17 05:20:37;;;;;;;;;;;;;;;;;;10418857;28;20376;-57
2022/09/17 05:25:39;;;;;;;;;;;;;;;;;;10420274;28;20376;-57
2022/09/17 05:30:41;;;;;;;;;;;;;;;;;;10419490;28;19925;-57
2022/09/17 05:35:43;;;;;;;;;;;;;;;;;;10420384;28;19983;-57
2022/09/17 05:40:46;;;;;;;;;;;;;;;;;;10419155;28;19971;-57
2022/09/17 05:45:48;;;;;;;;;;;;;;;;;;10418919;28;19971;-57
2022/09/17 05:50:50;;;;;;;;;;;;;;;;;;10418911;28;19933;-58
2022/09/17 05:55:52;;;;;;;;;;;;;;;;;;10419055;28;20261;-57
2022/09/17 06:00:54;;;;;;;;;;;;;;;;;;10418542;28;19925;-58
2022/09/17 06:05:57;;;;;;;;;;;;;;;;;;10419228;28;19925;-58
2022/09/17 06:10:59;;;;;;;;;;;;;;;;;;10418014;28;19972;-58
2022/09/17 06:16:03;;;;;;;;;;;;;;;;;;10419020;28;19925;-58
2022/09/17 06:21:05;;;;;;;;;;;;;;;;;;10416397;28;20388;-58
2022/09/17 06:26:07;;;;;;;;;;;;;;;;;;10418370;28;19952;-58
2022/09/17 06:31:09;;;;;;;;;;;;;;;;;;10415631;28;19971;-58
2022/09/17 06:36:12;;;;;;;;;;;;;;;;;;10417529;28;19925;-58
2022/09/17 06:41:15;;;;;;;;;;;;;;;;;;10416163;28;20028;-58
2022/09/17 06:46:18;;;;;;;;;;;;;;;;;;10416904;28;19979;-58
2022/09/17 06:51:21;;;;;;;;;;;;;;;;;;10416719;28;19925;-58
2022/09/17 06:56:23;;;;;;;;;;;;;;;;;;10416235;28;19986;-58
2022/09/17 07:01:25;;;;;;;;;;;;;;;;;;10415769;28;19928;-59
2022/09/17 07:06:27;;;;;;;;;;;;;;;;;;10416246;28;19925;-59
2022/09/17 07:11:30;;;;;;;;;;;;;;;;;;10416405;28;20340;-59
2022/09/17 07:16:33;;;;;;;;;;;;;;;;;;10414904;28;19925;-59
2022/09/17 07:21:36;;;;;;;;;;;;;;;;;;10415653;28;19929;-59
2022/09/17 07:26:38;;;;;;;;;;;;;;;;;;10413895;28;19925;-59
2022/09/17 07:31:40;;;;;;;;;;;;;;;;;;10397505;28;19926;-59
2022/09/17 07:36:43;;;;;;;;;;;;;;;;;;10418703;28;19933;-59
2022/09/17 07:41:45;;;;;;;;;;;;;;;;;;10397763;28;19988;-57
2022/09/17 07:46:47;;;;;;;;;;;;;;;;;;10413932;28;19925;-58
2022/09/17 07:51:49;;;;;;;;;;;;;;;;;;10413928;28;20020;-58
2022/09/17 07:56:51;;;;;;;;;;;;;;;;;;10413325;28;19925;-58
2022/09/17 08:01:53;;;;;;;;;;;;;;;;;;10415858;28;19975;-58
2022/09/17 08:06:55;;;;;;;;;;;;;;;;;;10415029;28;20368;-59
2022/09/17 08:11:58;;;;;;;;;;;;;;;;;;10415009;28;19991;-59
2022/09/17 08:17:00;;;;;;;;;;;;;;;;;;10415537;28;19932;-58
2022/09/17 08:22:02;;;;;;;;;;;;;;;;;;10415452;28;19925;-59
2022/09/17 08:27:04;;;;;;;;;;;;;;;;;;10414673;28;19929;-58
2022/09/17 08:32:06;;;;;;;;;;;;;;;;;;10414808;28;19925;-59
2022/09/17 08:37:08;;;;;;;;;;;;;;;;;;10414714;28;20334;-58
2022/09/17 08:42:10;;;;;;;;;;;;;;;;;;10415097;28;19971;-58
2022/09/17 08:47:12;;;;;;;;;;;;;;;;;;10414926;28;19925;-58
2022/09/17 08:52:14;;;;;;;;;;;;;;;;;;10397446;28;20324;-60
2022/09/17 08:57:16;;;;;;;;;;;;;;;;;;10422185;28;19979;-59
2022/09/17 09:02:19;;;;;;;;;;;;;;;;;;10421988;28;19924;-59
2022/09/17 09:07:21;;;;;;;;;;;;;;;;;;10421736;28;19925;-59
2022/09/17 09:12:23;;;;;;;;;;;;;;;;;;10421009;28;20369;-59
2022/09/17 09:17:26;;;;;;;;;;;;;;;;;;10422117;28;19933;-59
2022/09/17 09:22:28;;;;;;;;;;;;;;;;;;10421135;28;19925;-59
2022/09/17 09:27:30;;;;;;;;;;;;;;;;;;10420398;28;19926;-59
2022/09/17 09:32:32;;;;;;;;;;;;;;;;;;10420106;28;20372;-60
2022/09/17 09:37:34;;;;;;;;;;;;;;;;;;10420726;28;19975;-59
2022/09/17 09:42:36;;;;;;;;;;;;;;;;;;10419815;28;20388;-60
2022/09/17 09:47:38;;;;;;;;;;;;;;;;;;10420285;28;19925;-60
2022/09/17 09:52:40;;;;;;;;;;;;;;;;;;10419496;28;19979;-60
2022/09/17 09:57:42;;;;;;;;;;;;;;;;;;10409432;28;19929;-59
2022/09/17 10:02:44;;;;;;;;;;;;;;;;;;10378040;28;20356;-59
2022/09/17 10:07:46;;;;;;;;;;;;;;;;;;10378355;28;19929;-60
2022/09/17 10:12:48;;;;;;;;;;;;;;;;;;10377596;28;20360;-60
2022/09/17 10:17:50;;;;;;;;;;;;;;;;;;10405199;28;19925;-60
2022/09/17 10:22:52;;;;;;;;;;;;;;;;;;10415724;28;20339;-59
2022/09/17 10:27:55;;;;;;;;;;;;;;;;;;10416838;28;19975;-60
2022/09/17 10:32:57;;;;;;;;;;;;;;;;;;10417612;28;20265;-60
2022/09/17 10:37:59;;;;;;;;;;;;;;;;;;10413597;28;19968;-60
2022/09/17 10:43:01;;;;;;;;;;;;;;;;;;10400267;28;19933;-59
2022/09/17 10:48:03;;;;;;;;;;;;;;;;;;10417216;28;19952;-60
2022/09/17 10:53:05;;;;;;;;;;;;;;;;;;10417032;28;19925;-59
2022/09/17 10:58:07;;;;;;;;;;;;;;;;;;10412300;28;19929;-60
2022/09/17 11:03:09;;;;;;;;;;;;;;;;;;10416621;28;19932;-60
2022/09/17 11:08:11;;;;;;;;;;;;;;;;;;10397835;28;19925;-60
2022/09/17 11:13:13;;;;;;;;;;;;;;;;;;10412556;28;19925;-60
2022/09/17 11:18:15;;;;;;;;;;;;;;;;;;10414613;28;19978;-59
2022/09/17 11:23:17;;;;;;;;;;;;;;;;;;10419910;28;19929;-64
2022/09/17 11:28:19;;;;;;;;;;;;;;;;;;10424648;28;19925;-59
2022/09/17 11:33:21;;;;;;;;;;;;;;;;;;10415255;28;20394;-60
2022/09/17 11:38:23;;;;;;;;;;;;;;;;;;10398748;28;19925;-61
2022/09/17 11:43:26;;;;;;;;;;;;;;;;;;10415510;28;19925;-60
2022/09/17 11:48:29;;;;;;;;;;;;;;;;;;10403225;28;19937;-61
2022/09/17 11:53:31;;;;;;;;;;;;;;;;;;10373940;28;19926;-60
2022/09/17 11:58:33;;;;;;;;;;;;;;;;;;10375060;28;19926;-59
2022/09/17 12:03:35;;;;;;;;;;;;;;;;;;10374592;28;19932;-59
2022/09/17 12:08:37;;;;;;;;;;;;;;;;;;10376186;28;20356;-59
2022/09/17 12:13:39;;;;;;;;;;;;;;;;;;10413254;28;19929;-59
2022/09/17 12:18:41;;;;;;;;;;;;;;;;;;10413218;28;19929;-59
2022/09/17 12:23:43;;;;;;;;;;;;;;;;;;10415266;28;19925;-60
2022/09/17 12:28:45;;;;;;;;;;;;;;;;;;10418411;28;19975;-61
2022/09/17 12:33:47;;;;;;;;;;;;;;;;;;10422551;28;19929;-61
2022/09/17 12:38:49;;;;;;;;;;;;;;;;;;10422355;28;20380;-60
2022/09/17 12:43:51;;;;;;;;;;;;;;;;;;10422675;28;19925;-60
2022/09/17 12:48:54;;;;;;;;;;;;;;;;;;10432923;22;20268;-58
2022/09/17 12:53:56;;;;;;;;;;;;;;;;;;10421826;28;20330;-58
2022/09/17 12:58:58;;;;;;;;;;;;;;;;;;10422219;28;19979;-57
2022/09/17 13:04:00;;;;;;;;;;;;;;;;;;10418703;28;20265;-56
2022/09/17 13:09:03;;;;;;;;;;;;;;;;;;10419678;28;19987;-57
2022/09/17 13:14:06;;;;;;;;;;;;;;;;;;10422159;28;19929;-57
2022/09/17 13:19:08;;;;;;;;;;;;;;;;;;10420820;28;19983;-57
2022/09/17 13:24:18;;;;;;;;;;;;;;;;;;10420276;28;19979;-57
2022/09/17 13:29:20;;;;;;;;;;;;;;;;;;10418433;28;19926;-57
2022/09/17 13:34:24;;;;;;;;;;;;;;;;;;10419533;28;19925;-60
2022/09/17 13:39:26;;;;;;;;;;;;;;;;;;10419432;28;19929;-60
2022/09/17 13:44:28;;;;;;;;;;;;;;;;;;10418895;28;19925;-61
2022/09/17 13:49:30;;;;;;;;;;;;;;;;;;10418650;28;19929;-57
2022/09/17 13:54:33;;;;;;;;;;;;;;;;;;10419363;28;20372;-57
2022/09/17 13:59:35;;;;;;;;;;;;;;;;;;10418475;28;19983;-57
2022/09/17 14:04:37;;;;;;;;;;;;;;;;;;10418374;28;19971;-58
2022/09/17 14:09:40;;;;;;;;;;;;;;;;;;10417330;28;20262;-58
2022/09/17 14:14:42;;;;;;;;;;;;;;;;;;10417866;28;19929;-57
2022/09/17 14:19:45;;;;;;;;;;;;;;;;;;10418594;28;19928;-58
2022/09/17 14:24:52;;;;;;;;;;;;;;;;;;10418818;28;19925;-58
2022/09/17 14:29:54;;;;;;;;;;;;;;;;;;10417082;28;20434;-57
2022/09/17 14:34:56;;;;;;;;;;;;;;;;;;10418504;28;19925;-57
2022/09/17 14:39:58;;;;;;;;;;;;;;;;;;10418327;28;19925;-57
2022/09/17 14:45:00;;;;;;;;;;;;;;;;;;10415479;28;19928;-57
2022/09/17 14:50:02;;;;;;;;;;;;;;;;;;10414564;28;20280;-57
2022/09/17 14:55:04;;;;;;;;;;;;;;;;;;10417072;28;20424;-57
2022/09/17 15:00:07;;;;;;;;;;;;;;;;;;10417542;28;19925;-57
2022/09/17 15:05:11;;;;;;;;;;;;;;;;;;10416348;28;19925;-57
2022/09/17 15:10:14;;;;;;;;;;;;;;;;;;10415573;28;20411;-58
2022/09/17 15:15:16;;;;;;;;;;;;;;;;;;10415949;28;19932;-57
2022/09/17 15:20:18;;;;;;;;;;;;;;;;;;10416159;28;20327;-58
2022/09/17 15:25:22;;;;;;;;;;;;;;;;;;10414929;28;19965;-58
2022/09/17 15:30:24;;;;;;;;;;;;;;;;;;10415271;28;19974;-58
2022/09/17 15:35:28;;;;;;;;;;;;;;;;;;10416408;28;19975;-57
2022/09/17 15:40:31;;;;;;;;;;;;;;;;;;10416274;28;19925;-55
2022/09/17 15:45:37;;;;;;;;;;;;;;;;;;10414810;28;19973;-58
2022/09/17 15:50:39;;;;;;;;;;;;;;;;;;10414529;28;20380;-57
2022/09/17 15:55:41;;;;;;;;;;;;;;;;;;10415965;28;19975;-57
2022/09/17 16:00:43;;;;;;;;;;;;;;;;;;10415846;28;19926;-57
2022/09/17 16:05:46;;;;;;;;;;;;;;;;;;10423663;28;19925;-57
2022/09/17 16:10:48;;;;;;;;;;;;;;;;;;10422239;28;19929;-57
2022/09/17 16:15:50;;;;;;;;;;;;;;;;;;10423912;28;19925;-57
2022/09/17 16:20:52;;;;;;;;;;;;;;;;;;10420571;28;19929;-57
2022/09/17 16:25:54;;;;;;;;;;;;;;;;;;10422878;28;19929;-57
2022/09/17 16:30:56;;;;;;;;;;;;;;;;;;10422300;28;19925;-57
2022/09/17 16:35:58;;;;;;;;;;;;;;;;;;10423234;28;19964;-57
2022/09/17 16:41:00;;;;;;;;;;;;;;;;;;10422131;28;19925;-57
2022/09/17 16:46:02;;;;;;;;;;;;;;;;;;10422011;28;19929;-57
2022/09/17 16:51:04;;;;;;;;;;;;;;;;;;10403958;28;19975;-57
2022/09/17 16:56:06;;;;;;;;;;;;;;;;;;10421800;28;20388;-56
2022/09/17 17:01:08;;;;;;;;;;;;;;;;;;10422234;28;19929;-56
2022/09/17 17:06:10;;;;;;;;;;;;;;;;;;10436780;28;19972;-57
2022/09/17 17:11:13;;;;;;;;;;;;;;;;;;10436695;28;19925;-56
2022/09/17 17:16:15;;;;;;;;;;;;;;;;;;10420615;28;19929;-57
2022/09/17 17:21:17;;;;;;;;;;;;;;;;;;10428529;28;19925;-56
2022/09/17 17:26:19;;;;;;;;;;;;;;;;;;10443929;28;20282;-56
2022/09/17 17:31:21;;;;;;;;;;;;;;;;;;10419842;28;19925;-56
2022/09/17 17:36:23;;;;;;;;;;;;;;;;;;10416956;28;20020;-58
2022/09/17 17:41:27;;;;;;;;;;;;;;;;;;10438581;28;19982;-57
2022/09/17 17:46:29;;;;;;;;;;;;;;;;;;10431703;28;19925;-57
2022/09/17 17:51:31;;;;;;;;;;;;;;;;;;10419511;28;20396;-57
2022/09/17 17:56:33;;;;;;;;;;;;;;;;;;10432107;28;19925;-57
2022/09/17 18:01:37;;;;;;;;;;;;;;;;;;10461120;28;19982;-56
2022/09/17 18:06:39;;;;;;;;;;;;;;;;;;10445073;28;20019;-56
2022/09/17 18:11:41;;;;;;;;;;;;;;;;;;10413827;28;19979;-57
2022/09/17 18:16:43;;;;;;;;;;;;;;;;;;10416508;28;19925;-56
2022/09/17 18:21:45;;;;;;;;;;;;;;;;;;10416937;28;19957;-57
2022/09/17 18:26:47;;;;;;;;;;;;;;;;;;10412197;28;20026;-57
2022/09/17 18:31:49;;;;;;;;;;;;;;;;;;10408981;28;19929;-57
2022/09/17 18:36:51;;;;;;;;;;;;;;;;;;10406488;28;20391;-56
2022/09/17 18:41:53;;;;;;;;;;;;;;;;;;10440506;28;19971;-57
2022/09/17 18:46:55;;;;;;;;;;;;;;;;;;10426013;28;19933;-57
2022/09/17 18:51:59;;;;;;;;;;;;;;;;;;10381384;28;21574;-57
2022/09/17 18:57:01;;;;;;;;;;;;;;;;;;10416155;28;19971;-54
2022/09/17 19:02:03;;;;;;;;;;;;;;;;;;10415149;28;20438;-57
2022/09/17 19:07:06;;;;;;;;;;;;;;;;;;10414982;28;19936;-56
2022/09/17 19:12:08;;;;;;;;;;;;;;;;;;10413729;28;19929;-57
2022/09/17 19:17:10;;;;;;;;;;;;;;;;;;10414064;28;20339;-57
2022/09/17 19:22:12;;;;;;;;;;;;;;;;;;10414301;28;19925;-56
2022/09/17 19:27:14;;;;;;;;;;;;;;;;;;10414505;28;19925;-57
2022/09/17 19:32:16;;;;;;;;;;;;;;;;;;10413840;28;20327;-55
2022/09/17 19:37:18;;;;;;;;;;;;;;;;;;10414154;28;19955;-57
2022/09/17 19:42:20;;;;;;;;;;;;;;;;;;10414491;28;19978;-55
2022/09/17 19:47:22;;;;;;;;;;;;;;;;;;10413196;28;19972;-56
2022/09/17 19:52:24;;;;;;;;;;;;;;;;;;10413460;28;19925;-56
2022/09/17 19:57:26;;;;;;;;;;;;;;;;;;10414584;28;19929;-57
2022/09/17 20:02:28;;;;;;;;;;;;;;;;;;10415243;28;19932;-57
2022/09/17 20:07:31;;;;;;;;;;;;;;;;;;10413380;28;20292;-57
2022/09/17 20:12:33;;;;;;;;;;;;;;;;;;10414223;28;19925;-56
2022/09/17 20:17:35;;;;;;;;;;;;;;;;;;10414222;28;19929;-56
2022/09/17 20:22:37;;;;;;;;;;;;;;;;;;10413197;28;19925;-57
2022/09/17 20:27:39;;;;;;;;;;;;;;;;;;10412567;28;20364;-56
2022/09/17 20:32:41;;;;;;;;;;;;;;;;;;10413355;28;19971;-57
2022/09/17 20:37:43;;;;;;;;;;;;;;;;;;10412620;28;20371;-57
2022/09/17 20:43:05;;;;;;;;;;;;;;;;;;10400683;28;19983;-56
2022/09/17 20:48:07;;;;;;;;;;;;;;;;;;10412883;28;19929;-56
2022/09/17 20:53:10;;;;;;;;;;;;;;;;;;10398846;28;19925;-56
2022/09/17 20:58:12;;;;;;;;;;;;;;;;;;10420456;28;19971;-57
2022/09/17 21:03:14;;;;;;;;;;;;;;;;;;10420596;28;19928;-57
2022/09/17 21:08:16;;;;;;;;;;;;;;;;;;10418967;28;19983;-57
2022/09/17 21:13:18;;;;;;;;;;;;;;;;;;10419370;28;19925;-57
2022/09/17 21:18:20;;;;;;;;;;;;;;;;;;10419627;28;20369;-57
2022/09/17 21:23:22;;;;;;;;;;;;;;;;;;10419775;28;19925;-56
2022/09/17 21:28:24;;;;;;;;;;;;;;;;;;10418714;28;20327;-57
2022/09/17 21:33:26;;;;;;;;;;;;;;;;;;10417417;28;19979;-57
2022/09/17 21:38:29;;;;;;;;;;;;;;;;;;10419366;28;20339;-57
2022/09/17 21:43:31;;;;;;;;;;;;;;;;;;10419393;28;19933;-59
2022/09/17 21:48:33;;;;;;;;;;;;;;;;;;10419047;28;19929;-58
2022/09/17 21:53:35;;;;;;;;;;;;;;;;;;10419015;28;19979;-59
2022/09/17 21:58:37;;;;;;;;;;;;;;;;;;10418667;28;19995;-59
2022/09/17 22:03:39;;;;;;;;;;;;;;;;;;10418144;28;20377;-58
2022/09/17 22:08:41;;;;;;;;;;;;;;;;;;10419646;28;19929;-59
2022/09/17 22:13:43;;;;;;;;;;;;;;;;;;10418562;28;19952;-59
2022/09/17 22:18:45;;;;;;;;;;;;;;;;;;10418718;28;19925;-59
2022/09/17 22:23:48;;;;;;;;;;;;;;;;;;10417637;28;19929;-59
2022/09/17 22:28:50;;;;;;;;;;;;;;;;;;10417328;28;19971;-59
2022/09/17 22:33:52;;;;;;;;;;;;;;;;;;10417837;28;19971;-59
2022/09/17 22:38:54;;;;;;;;;;;;;;;;;;10417877;28;20376;-59
2022/09/17 22:43:56;;;;;;;;;;;;;;;;;;10416763;28;19975;-59
2022/09/17 22:48:58;;;;;;;;;;;;;;;;;;10417420;28;19925;-58
2022/09/17 22:54:00;;;;;;;;;;;;;;;;;;10415277;28;20372;-59
2022/09/17 22:59:03;;;;;;;;;;;;;;;;;;10417635;28;19925;-59
2022/09/17 23:04:05;;;;;;;;;;;;;;;;;;10399179;28;19925;-59
2022/09/17 23:09:07;;;;;;;;;;;;;;;;;;10415888;28;19980;-59
2022/09/17 23:14:09;;;;;;;;;;;;;;;;;;10415825;28;19925;-59
2022/09/17 23:19:12;;;;;;;;;;;;;;;;;;10417192;28;19979;-59
2022/09/17 23:24:14;;;;;;;;;;;;;;;;;;10415912;28;19925;-59
2022/09/17 23:29:16;;;;;;;;;;;;;;;;;;10414631;28;19975;-59
2022/09/17 23:34:18;;;;;;;;;;;;;;;;;;10415908;28;20323;-58
2022/09/17 23:39:20;;;;;;;;;;;;;;;;;;10415832;28;19979;-59
2022/09/17 23:44:22;;;;;;;;;;;;;;;;;;10413973;28;19971;-58
2022/09/17 23:49:24;;;;;;;;;;;;;;;;;;10415030;28;19933;-59
2022/09/17 23:54:26;;;;;;;;;;;;;;;;;;10416262;28;19929;-58
2022/09/17 23:59:28;;;;;;;;;;;;;;;;;;10416013;28;19979;-58
